sensor_id;sensor_type;location;lat;lon;timestamp;pressure;altitude;pressure_sealevel;temperature;humidity
76352;BME280;65179;47.786;19.138;2023-03-26T00:00:46;99745.41;;;9.11;63.92
76352;BME280;65179;47.786;19.138;2023-03-26T00:03:15;99745.09;;;9.19;63.95
76352;BME280;65179;47.786;19.138;2023-03-26T00:05:42;99743.06;;;9.14;63.58
76352;BME280;65179;47.786;19.138;2023-03-26T00:08:08;99743.75;;;9.10;63.92
76352;BME280;65179;47.786;19.138;2023-03-26T00:10:35;99745.81;;;8.96;64.61
76352;BME280;65179;47.786;19.138;2023-03-26T00:13:02;99743.69;;;8.98;64.24
76352;BME280;65179;47.786;19.138;2023-03-26T00:15:28;99750.59;;;8.94;64.35
76352;BME280;65179;47.786;19.138;2023-03-26T00:17:53;99746.25;;;8.93;64.58
76352;BME280;65179;47.786;19.138;2023-03-26T00:20:20;99748.78;;;8.88;64.70
76352;BME280;65179;47.786;19.138;2023-03-26T00:22:46;99747.16;;;8.87;64.30
76352;BME280;65179;47.786;19.138;2023-03-26T00:25:12;99748.41;;;8.85;64.40
76352;BME280;65179;47.786;19.138;2023-03-26T00:27:38;99744.78;;;8.73;64.92
76352;BME280;65179;47.786;19.138;2023-03-26T00:30:04;99748.31;;;8.73;64.89
76352;BME280;65179;47.786;19.138;2023-03-26T00:32:30;99750.59;;;8.76;64.61
76352;BME280;65179;47.786;19.138;2023-03-26T00:34:56;99751.50;;;8.70;64.99
76352;BME280;65179;47.786;19.138;2023-03-26T00:37:22;99741.69;;;8.69;64.61
76352;BME280;65179;47.786;19.138;2023-03-26T00:39:53;99745.31;;;8.63;64.83
76352;BME280;65179;47.786;19.138;2023-03-26T00:42:27;99746.34;;;8.62;64.85
76352;BME280;65179;47.786;19.138;2023-03-26T00:44:52;99747.84;;;8.58;64.76
76352;BME280;65179;47.786;19.138;2023-03-26T00:47:26;99741.84;;;8.56;64.85
76352;BME280;65179;47.786;19.138;2023-03-26T00:49:52;99739.53;;;8.60;64.68
76352;BME280;65179;47.786;19.138;2023-03-26T00:52:18;99726.59;;;8.62;64.40
76352;BME280;65179;47.786;19.138;2023-03-26T00:54:50;99730.28;;;8.67;64.20
76352;BME280;65179;47.786;19.138;2023-03-26T00:57:17;99736.53;;;8.68;64.01
76352;BME280;65179;47.786;19.138;2023-03-26T00:59:44;99733.41;;;8.64;64.00
76352;BME280;65179;47.786;19.138;2023-03-26T01:02:12;99729.19;;;8.50;64.55
76352;BME280;65179;47.786;19.138;2023-03-26T01:04:44;99726.50;;;8.50;64.65
76352;BME280;65179;47.786;19.138;2023-03-26T01:07:12;99723.56;;;8.52;64.50
76352;BME280;65179;47.786;19.138;2023-03-26T01:09:43;99710.69;;;8.47;64.65
76352;BME280;65179;47.786;19.138;2023-03-26T01:12:12;99717.53;;;8.50;64.67
76352;BME280;65179;47.786;19.138;2023-03-26T01:14:42;99713.78;;;8.51;64.43
76352;BME280;65179;47.786;19.138;2023-03-26T01:17:08;99709.72;;;8.42;64.92
76352;BME280;65179;47.786;19.138;2023-03-26T01:22:24;99717.34;;;8.26;65.58
76352;BME280;65179;47.786;19.138;2023-03-26T01:24:51;99717.72;;;8.30;65.52
76352;BME280;65179;47.786;19.138;2023-03-26T01:30:06;99708.09;;;8.34;65.37
76352;BME280;65179;47.786;19.138;2023-03-26T01:43:45;99722.94;;;8.25;65.64
76352;BME280;65179;47.786;19.138;2023-03-26T01:46:12;99729.81;;;8.21;65.70
76352;BME280;65179;47.786;19.138;2023-03-26T01:48:42;99738.53;;;8.23;65.81
76352;BME280;65179;47.786;19.138;2023-03-26T01:51:09;99728.63;;;8.17;65.84
76352;BME280;65179;47.786;19.138;2023-03-26T01:53:42;99729.69;;;8.16;66.04
76352;BME280;65179;47.786;19.138;2023-03-26T01:56:26;99726.97;;;8.16;66.09
76352;BME280;65179;47.786;19.138;2023-03-26T01:59:11;99735.69;;;8.18;66.06
76352;BME280;65179;47.786;19.138;2023-03-26T02:01:59;99734.63;;;8.19;66.03
76352;BME280;65179;47.786;19.138;2023-03-26T02:07:30;99729.50;;;8.11;66.22
76352;BME280;65179;47.786;19.138;2023-03-26T02:10:15;99734.47;;;8.14;66.28
76352;BME280;65179;47.786;19.138;2023-03-26T02:12:42;99741.09;;;8.18;66.07
76352;BME280;65179;47.786;19.138;2023-03-26T02:15:09;99741.94;;;8.18;65.89
76352;BME280;65179;47.786;19.138;2023-03-26T02:17:35;99748.16;;;8.19;65.98
76352;BME280;65179;47.786;19.138;2023-03-26T02:20:06;99748.16;;;8.19;65.98
76352;BME280;65179;47.786;19.138;2023-03-26T02:22:34;99754.63;;;8.18;65.99
76352;BME280;65179;47.786;19.138;2023-03-26T02:25:09;99752.53;;;8.20;65.82
76352;BME280;65179;47.786;19.138;2023-03-26T02:27:35;99756.06;;;8.20;65.97
76352;BME280;65179;47.786;19.138;2023-03-26T02:30:03;99752.81;;;8.12;66.33
76352;BME280;65179;47.786;19.138;2023-03-26T02:32:29;99759.25;;;8.11;66.10
76352;BME280;65179;47.786;19.138;2023-03-26T02:34:55;99747.78;;;8.15;66.01
76352;BME280;65179;47.786;19.138;2023-03-26T02:37:20;99756.13;;;8.14;66.19
76352;BME280;65179;47.786;19.138;2023-03-26T02:39:45;99746.56;;;8.11;65.99
76352;BME280;65179;47.786;19.138;2023-03-26T02:42:11;99738.28;;;8.06;66.32
76352;BME280;65179;47.786;19.138;2023-03-26T02:44:36;99744.50;;;8.07;66.31
76352;BME280;65179;47.786;19.138;2023-03-26T02:47:04;99742.41;;;8.09;66.40
76352;BME280;65179;47.786;19.138;2023-03-26T02:49:30;99745.72;;;8.11;66.22
76352;BME280;65179;47.786;19.138;2023-03-26T02:51:55;99741.59;;;8.08;66.36
76352;BME280;65179;47.786;19.138;2023-03-26T02:54:21;99737.91;;;8.03;66.51
76352;BME280;65179;47.786;19.138;2023-03-26T02:56:47;99729.19;;;8.01;66.53
76352;BME280;65179;47.786;19.138;2023-03-26T02:59:13;99726.72;;;7.93;66.96
76352;BME280;65179;47.786;19.138;2023-03-26T03:01:39;99734.41;;;7.96;66.94
76352;BME280;65179;47.786;19.138;2023-03-26T03:04:10;99728.16;;;7.95;67.05
76352;BME280;65179;47.786;19.138;2023-03-26T03:06:36;99737.94;;;7.96;67.01
76352;BME280;65179;47.786;19.138;2023-03-26T03:09:08;99736.72;;;7.92;67.09
76352;BME280;65179;47.786;19.138;2023-03-26T03:11:33;99729.28;;;7.88;67.36
76352;BME280;65179;47.786;19.138;2023-03-26T03:13:59;99740.13;;;7.81;67.65
76352;BME280;65179;47.786;19.138;2023-03-26T03:16:26;99740.16;;;7.75;67.87
76352;BME280;65179;47.786;19.138;2023-03-26T03:18:52;99745.56;;;7.75;67.83
76352;BME280;65179;47.786;19.138;2023-03-26T03:21:22;99753.03;;;7.79;67.66
76352;BME280;65179;47.786;19.138;2023-03-26T03:23:48;99748.94;;;7.70;68.22
76352;BME280;65179;47.786;19.138;2023-03-26T03:26:16;99746.41;;;7.75;67.92
76352;BME280;65179;47.786;19.138;2023-03-26T03:28:42;99746.22;;;7.70;68.12
76352;BME280;65179;47.786;19.138;2023-03-26T03:31:09;99745.00;;;7.66;68.40
76352;BME280;65179;47.786;19.138;2023-03-26T03:33:35;99752.66;;;7.69;67.77
76352;BME280;65179;47.786;19.138;2023-03-26T03:36:00;99741.50;;;7.59;68.29
76352;BME280;65179;47.786;19.138;2023-03-26T03:38:26;99735.31;;;7.52;68.15
76352;BME280;65179;47.786;19.138;2023-03-26T03:40:51;99751.94;;;7.55;68.42
76352;BME280;65179;47.786;19.138;2023-03-26T03:43:19;99743.63;;;7.50;68.65
76352;BME280;65179;47.786;19.138;2023-03-26T03:45:44;99747.84;;;7.40;68.69
76352;BME280;65179;47.786;19.138;2023-03-26T03:48:11;99747.00;;;7.39;68.90
76352;BME280;65179;47.786;19.138;2023-03-26T03:50:36;99746.81;;;7.34;69.35
76352;BME280;65179;47.786;19.138;2023-03-26T03:53:02;99745.62;;;7.24;69.45
76352;BME280;65179;47.786;19.138;2023-03-26T03:55:29;99755.84;;;7.15;69.57
76352;BME280;65179;47.786;19.138;2023-03-26T03:57:55;99751.28;;;7.16;69.73
76352;BME280;65179;47.786;19.138;2023-03-26T04:00:22;99755.22;;;7.13;69.79
76352;BME280;65179;47.786;19.138;2023-03-26T04:02:48;99753.78;;;7.11;69.98
76352;BME280;65179;47.786;19.138;2023-03-26T04:05:13;99761.69;;;7.06;69.65
76352;BME280;65179;47.786;19.138;2023-03-26T04:07:39;99753.78;;;7.04;69.97
76352;BME280;65179;47.786;19.138;2023-03-26T04:10:06;99752.56;;;7.00;70.23
76352;BME280;65179;47.786;19.138;2023-03-26T04:12:32;99751.72;;;7.00;70.01
76352;BME280;65179;47.786;19.138;2023-03-26T04:14:58;99753.81;;;6.98;70.16
76352;BME280;65179;47.786;19.138;2023-03-26T04:17:24;99751.75;;;6.93;70.10
76352;BME280;65179;47.786;19.138;2023-03-26T04:19:50;99748.44;;;6.84;70.67
76352;BME280;65179;47.786;19.138;2023-03-26T04:22:19;99753.81;;;6.91;70.55
76352;BME280;65179;47.786;19.138;2023-03-26T04:24:46;99751.13;;;6.91;70.36
76352;BME280;65179;47.786;19.138;2023-03-26T04:27:16;99759.47;;;6.83;70.59
76352;BME280;65179;47.786;19.138;2023-03-26T04:29:45;99756.53;;;6.84;70.67
76352;BME280;65179;47.786;19.138;2023-03-26T04:32:25;99754.28;;;6.88;70.56
76352;BME280;65179;47.786;19.138;2023-03-26T04:34:55;99760.25;;;6.97;70.52
76352;BME280;65179;47.786;19.138;2023-03-26T04:37:30;99747.38;;;7.05;70.09
76352;BME280;65179;47.786;19.138;2023-03-26T04:40:02;99748.59;;;7.09;69.97
76352;BME280;65179;47.786;19.138;2023-03-26T04:42:35;99754.59;;;7.11;70.03
76352;BME280;65179;47.786;19.138;2023-03-26T04:45:04;99761.44;;;7.20;69.54
76352;BME280;65179;47.786;19.138;2023-03-26T04:47:30;99759.97;;;7.18;69.66
76352;BME280;65179;47.786;19.138;2023-03-26T04:49:56;99748.75;;;7.21;69.36
76352;BME280;65179;47.786;19.138;2023-03-26T04:52:21;99746.69;;;7.16;69.43
76352;BME280;65179;47.786;19.138;2023-03-26T04:54:47;99755.41;;;7.25;69.17
76352;BME280;65179;47.786;19.138;2023-03-26T04:57:39;99749.34;;;7.29;68.83
76352;BME280;65179;47.786;19.138;2023-03-26T05:00:05;99754.09;;;7.40;68.51
76352;BME280;65179;47.786;19.138;2023-03-26T05:02:44;99749.44;;;7.47;68.28
76352;BME280;65179;47.786;19.138;2023-03-26T05:05:10;99765.03;;;7.52;68.02
76352;BME280;65179;47.786;19.138;2023-03-26T05:07:35;99752.97;;;7.54;67.83
76352;BME280;65179;47.786;19.138;2023-03-26T05:10:02;99757.09;;;7.57;67.80
76352;BME280;65179;47.786;19.138;2023-03-26T05:12:30;99757.06;;;7.63;67.77
76352;BME280;65179;47.786;19.138;2023-03-26T05:14:55;99761.81;;;7.68;67.56
76352;BME280;65179;47.786;19.138;2023-03-26T05:17:22;99767.00;;;7.70;67.28
76352;BME280;65179;47.786;19.138;2023-03-26T05:19:49;99764.72;;;7.73;67.20
76352;BME280;65179;47.786;19.138;2023-03-26T05:22:16;99755.94;;;7.78;66.86
76352;BME280;65179;47.786;19.138;2023-03-26T05:24:42;99764.41;;;7.88;66.54
76352;BME280;65179;47.786;19.138;2023-03-26T05:27:07;99761.88;;;7.93;66.44
76352;BME280;65179;47.786;19.138;2023-03-26T05:29:33;99767.03;;;8.01;66.01
76352;BME280;65179;47.786;19.138;2023-03-26T05:31:58;99758.03;;;8.07;65.86
76352;BME280;65179;47.786;19.138;2023-03-26T05:34:24;99759.84;;;8.13;65.64
76352;BME280;65179;47.786;19.138;2023-03-26T05:36:51;99753.12;;;8.22;65.52
76352;BME280;65179;47.786;19.138;2023-03-26T05:39:17;99745.59;;;8.30;65.13
76352;BME280;65179;47.786;19.138;2023-03-26T05:41:43;99754.69;;;8.36;64.91
76352;BME280;65179;47.786;19.138;2023-03-26T05:44:08;99747.13;;;8.45;64.49
76352;BME280;65179;47.786;19.138;2023-03-26T05:46:34;99753.72;;;8.55;64.36
76352;BME280;65179;47.786;19.138;2023-03-26T05:48:59;99751.56;;;8.64;63.98
76352;BME280;65179;47.786;19.138;2023-03-26T05:51:25;99751.50;;;8.70;63.96
76352;BME280;65179;47.786;19.138;2023-03-26T05:53:50;99751.78;;;8.80;63.51
76352;BME280;65179;47.786;19.138;2023-03-26T05:56:16;99750.44;;;8.89;63.11
76352;BME280;65179;47.786;19.138;2023-03-26T05:58:41;99756.41;;;8.98;63.16
76352;BME280;65179;47.786;19.138;2023-03-26T06:01:10;99750.69;;;9.06;62.80
76352;BME280;65179;47.786;19.138;2023-03-26T06:03:42;99751.19;;;9.14;62.63
76352;BME280;65179;47.786;19.138;2023-03-26T06:06:16;99751.34;;;9.20;62.15
76352;BME280;65179;47.786;19.138;2023-03-26T06:08:43;99752.13;;;9.27;61.99
76352;BME280;65179;47.786;19.138;2023-03-26T06:11:11;99741.63;;;9.30;61.87
76352;BME280;65179;47.786;19.138;2023-03-26T06:13:38;99745.91;;;9.38;61.58
76352;BME280;65179;47.786;19.138;2023-03-26T06:16:04;99749.37;;;9.45;60.89
76352;BME280;65179;47.786;19.138;2023-03-26T06:18:30;99749.44;;;9.56;60.60
76352;BME280;65179;47.786;19.138;2023-03-26T06:20:55;99744.97;;;9.62;60.62
76352;BME280;65179;47.786;19.138;2023-03-26T06:23:21;99746.78;;;9.68;60.75
76352;BME280;65179;47.786;19.138;2023-03-26T06:25:47;99751.38;;;9.79;60.41
76352;BME280;65179;47.786;19.138;2023-03-26T06:28:13;99752.13;;;9.86;60.44
76352;BME280;65179;47.786;19.138;2023-03-26T06:30:39;99748.13;;;9.88;60.34
76352;BME280;65179;47.786;19.138;2023-03-26T06:33:05;99752.41;;;9.96;59.47
76352;BME280;65179;47.786;19.138;2023-03-26T06:35:31;99741.09;;;9.99;59.96
76352;BME280;65179;47.786;19.138;2023-03-26T06:37:57;99747.25;;;10.06;59.56
76352;BME280;65179;47.786;19.138;2023-03-26T06:40:22;99747.78;;;10.15;59.12
76352;BME280;65179;47.786;19.138;2023-03-26T06:42:48;99745.28;;;10.25;59.19
76352;BME280;65179;47.786;19.138;2023-03-26T06:45:14;99749.81;;;10.31;59.00
76352;BME280;65179;47.786;19.138;2023-03-26T06:47:40;99753.00;;;10.39;58.45
76352;BME280;65179;47.786;19.138;2023-03-26T06:50:06;99759.13;;;10.46;58.12
76352;BME280;65179;47.786;19.138;2023-03-26T06:52:31;99746.88;;;10.55;58.17
76352;BME280;65179;47.786;19.138;2023-03-26T06:54:57;99744.63;;;10.64;57.70
76352;BME280;65179;47.786;19.138;2023-03-26T06:57:22;99742.87;;;10.70;57.46
76352;BME280;65179;47.786;19.138;2023-03-26T06:59:47;99750.06;;;10.76;57.45
76352;BME280;65179;47.786;19.138;2023-03-26T07:02:13;99745.94;;;10.85;57.45
76352;BME280;65179;47.786;19.138;2023-03-26T07:04:38;99743.31;;;10.90;57.25
76352;BME280;65179;47.786;19.138;2023-03-26T07:07:04;99741.56;;;10.95;57.13
76352;BME280;65179;47.786;19.138;2023-03-26T07:09:30;99738.22;;;11.05;56.78
76352;BME280;65179;47.786;19.138;2023-03-26T07:11:56;99731.47;;;11.19;56.53
76352;BME280;65179;47.786;19.138;2023-03-26T07:14:22;99730.03;;;11.28;56.71
76352;BME280;65179;47.786;19.138;2023-03-26T07:16:57;99739.09;;;11.45;55.81
76352;BME280;65179;47.786;19.138;2023-03-26T07:19:23;99731.59;;;11.52;55.63
76352;BME280;65179;47.786;19.138;2023-03-26T07:21:49;99717.94;;;11.64;55.67
76352;BME280;65179;47.786;19.138;2023-03-26T07:24:17;99731.44;;;11.70;54.68
76352;BME280;65179;47.786;19.138;2023-03-26T07:31:57;99730.19;;;12.06;54.16
76352;BME280;65179;47.786;19.138;2023-03-26T07:34:50;99716.34;;;12.07;53.75
76352;BME280;65179;47.786;19.138;2023-03-26T07:37:31;99727.00;;;12.26;53.91
76352;BME280;65179;47.786;19.138;2023-03-26T07:42:54;99724.38;;;12.47;52.61
76352;BME280;65179;47.786;19.138;2023-03-26T07:45:34;99732.41;;;12.59;52.70
76352;BME280;65179;47.786;19.138;2023-03-26T07:48:17;99729.97;;;12.57;52.19
76352;BME280;65179;47.786;19.138;2023-03-26T07:50:45;99733.84;;;12.45;52.96
76352;BME280;65179;47.786;19.138;2023-03-26T07:53:11;99736.38;;;12.35;53.51
76352;BME280;65179;47.786;19.138;2023-03-26T07:55:48;99740.88;;;12.41;53.60
76352;BME280;65179;47.786;19.138;2023-03-26T07:58:20;99734.75;;;12.50;52.81
76352;BME280;65179;47.786;19.138;2023-03-26T08:01:09;99734.91;;;12.60;52.67
76352;BME280;65179;47.786;19.138;2023-03-26T08:06:33;99732.50;;;12.64;51.31
76352;BME280;65179;47.786;19.138;2023-03-26T08:11:39;99729.56;;;13.04;50.27
76352;BME280;65179;47.786;19.138;2023-03-26T08:14:26;99733.19;;;13.52;49.64
76352;BME280;65179;47.786;19.138;2023-03-26T08:17:04;99736.00;;;13.84;48.22
76352;BME280;65179;47.786;19.138;2023-03-26T08:22:36;99738.66;;;13.52;48.87
76352;BME280;65179;47.786;19.138;2023-03-26T08:25:24;99731.12;;;13.38;49.12
76352;BME280;65179;47.786;19.138;2023-03-26T08:30:36;99744.69;;;13.54;49.67
76352;BME280;65179;47.786;19.138;2023-03-26T08:35:35;99740.81;;;13.07;50.15
76352;BME280;65179;47.786;19.138;2023-03-26T08:38:09;99752.81;;;12.73;50.58
76352;BME280;65179;47.786;19.138;2023-03-26T08:59:55;99721.66;;;13.24;49.29
76352;BME280;65179;47.786;19.138;2023-03-26T09:10:55;99709.41;;;13.48;48.52
76352;BME280;65179;47.786;19.138;2023-03-26T09:25:15;99689.47;;;14.64;46.00
76352;BME280;65179;47.786;19.138;2023-03-26T09:39:47;99698.50;;;14.01;47.48
76352;BME280;65179;47.786;19.138;2023-03-26T09:47:34;99693.09;;;14.06;47.98
76352;BME280;65179;47.786;19.138;2023-03-26T10:12:31;99693.09;;;14.33;45.66
76352;BME280;65179;47.786;19.138;2023-03-26T10:20:51;99674.78;;;14.70;44.57
76352;BME280;65179;47.786;19.138;2023-03-26T10:39:59;99635.06;;;17.11;38.82
76352;BME280;65179;47.786;19.138;2023-03-26T10:50:51;99623.59;;;17.04;38.54
76352;BME280;65179;47.786;19.138;2023-03-26T10:53:45;99616.09;;;17.73;37.78
76352;BME280;65179;47.786;19.138;2023-03-26T10:58:48;99598.31;;;18.57;35.72
76352;BME280;65179;47.786;19.138;2023-03-26T11:01:43;99609.59;;;18.27;35.92
76352;BME280;65179;47.786;19.138;2023-03-26T11:08:09;99595.75;;;18.65;35.23
76352;BME280;65179;47.786;19.138;2023-03-26T11:13:15;99576.19;;;18.67;34.57
76352;BME280;65179;47.786;19.138;2023-03-26T11:16:31;99577.31;;;17.80;35.08
76352;BME280;65179;47.786;19.138;2023-03-26T11:21:21;99555.50;;;18.93;33.00
76352;BME280;65179;47.786;19.138;2023-03-26T11:32:22;99535.81;;;20.11;32.19
76352;BME280;65179;47.786;19.138;2023-03-26T11:35:08;99526.91;;;20.60;31.51
76352;BME280;65179;47.786;19.138;2023-03-26T11:37:51;99531.28;;;20.20;31.59
76352;BME280;65179;47.786;19.138;2023-03-26T11:40:34;99515.28;;;19.72;30.68
76352;BME280;65179;47.786;19.138;2023-03-26T11:43:03;99500.81;;;19.80;31.71
76352;BME280;65179;47.786;19.138;2023-03-26T11:45:36;99501.25;;;19.87;31.34
76352;BME280;65179;47.786;19.138;2023-03-26T11:48:13;99502.97;;;19.13;32.51
76352;BME280;65179;47.786;19.138;2023-03-26T11:50:45;99497.56;;;18.66;33.28
76352;BME280;65179;47.786;19.138;2023-03-26T11:53:17;99490.91;;;18.19;32.85
76352;BME280;65179;47.786;19.138;2023-03-26T11:56:15;99484.72;;;17.80;33.04
76352;BME280;65179;47.786;19.138;2023-03-26T11:58:50;99487.97;;;17.87;33.85
76352;BME280;65179;47.786;19.138;2023-03-26T12:01:24;99483.72;;;18.24;33.74
76352;BME280;65179;47.786;19.138;2023-03-26T12:04:04;99472.91;;;18.08;34.22
76352;BME280;65179;47.786;19.138;2023-03-26T12:06:31;99469.78;;;17.91;33.89
76352;BME280;65179;47.786;19.138;2023-03-26T12:08:57;99455.94;;;17.39;33.54
76352;BME280;65179;47.786;19.138;2023-03-26T12:11:25;99445.16;;;17.53;34.11
76352;BME280;65179;47.786;19.138;2023-03-26T12:13:58;99444.09;;;17.49;34.18
76352;BME280;65179;47.786;19.138;2023-03-26T12:16:25;99447.25;;;17.32;33.25
76352;BME280;65179;47.786;19.138;2023-03-26T12:19:00;99441.38;;;17.10;34.09
76352;BME280;65179;47.786;19.138;2023-03-26T12:21:27;99430.69;;;17.42;35.31
76352;BME280;65179;47.786;19.138;2023-03-26T12:23:59;99436.81;;;17.34;34.09
76352;BME280;65179;47.786;19.138;2023-03-26T12:26:42;99426.72;;;18.10;32.12
76352;BME280;65179;47.786;19.138;2023-03-26T12:29:13;99424.56;;;19.11;31.26
76352;BME280;65179;47.786;19.138;2023-03-26T12:34:21;99402.28;;;18.75;31.05
76352;BME280;65179;47.786;19.138;2023-03-26T12:36:53;99397.28;;;18.58;31.44
76352;BME280;65179;47.786;19.138;2023-03-26T12:39:36;99386.94;;;17.84;32.13
76352;BME280;65179;47.786;19.138;2023-03-26T12:42:04;99384.44;;;17.59;33.03
76352;BME280;65179;47.786;19.138;2023-03-26T12:44:43;99394.03;;;17.85;32.74
76352;BME280;65179;47.786;19.138;2023-03-26T12:47:21;99377.16;;;17.97;32.97
76352;BME280;65179;47.786;19.138;2023-03-26T12:49:48;99390.22;;;17.58;33.25
76352;BME280;65179;47.786;19.138;2023-03-26T12:52:49;99379.03;;;17.49;33.44
76352;BME280;65179;47.786;19.138;2023-03-26T12:55:39;99385.88;;;17.18;34.06
76352;BME280;65179;47.786;19.138;2023-03-26T12:58:31;99372.50;;;17.11;34.06
76352;BME280;65179;47.786;19.138;2023-03-26T13:09:52;99369.50;;;17.94;33.70
76352;BME280;65179;47.786;19.138;2023-03-26T13:12:26;99366.81;;;18.12;32.78
76352;BME280;65179;47.786;19.138;2023-03-26T13:22:45;99338.00;;;17.34;34.60
76352;BME280;65179;47.786;19.138;2023-03-26T13:28:25;99335.00;;;17.59;33.93
76352;BME280;65179;47.786;19.138;2023-03-26T13:47:06;99313.28;;;17.86;32.50
76352;BME280;65179;47.786;19.138;2023-03-26T13:49:40;99301.81;;;18.22;32.43
76352;BME280;65179;47.786;19.138;2023-03-26T13:52:13;99301.13;;;18.11;32.20
76352;BME280;65179;47.786;19.138;2023-03-26T13:55:13;99295.31;;;17.75;32.39
76352;BME280;65179;47.786;19.138;2023-03-26T13:57:48;99292.37;;;17.90;32.14
76352;BME280;65179;47.786;19.138;2023-03-26T14:00:44;99286.03;;;17.90;32.38
76352;BME280;65179;47.786;19.138;2023-03-26T14:03:30;99274.06;;;17.81;32.17
76352;BME280;65179;47.786;19.138;2023-03-26T14:06:03;99266.97;;;17.56;31.85
76352;BME280;65179;47.786;19.138;2023-03-26T14:08:43;99263.81;;;17.39;32.73
76352;BME280;65179;47.786;19.138;2023-03-26T14:11:30;99255.34;;;17.64;31.42
76352;BME280;65179;47.786;19.138;2023-03-26T14:14:02;99251.53;;;18.02;31.81
76352;BME280;65179;47.786;19.138;2023-03-26T14:16:35;99264.53;;;17.97;31.21
76352;BME280;65179;47.786;19.138;2023-03-26T14:40:55;99231.87;;;17.72;30.59
76352;BME280;65179;47.786;19.138;2023-03-26T14:43:49;99218.09;;;17.77;30.14
76352;BME280;65179;47.786;19.138;2023-03-26T14:54:38;99198.28;;;17.80;30.61
76352;BME280;65179;47.786;19.138;2023-03-26T14:57:22;99191.66;;;17.62;30.17
76352;BME280;65179;47.786;19.138;2023-03-26T15:00:22;99182.62;;;17.80;30.50
76352;BME280;65179;47.786;19.138;2023-03-26T15:11:21;99172.50;;;17.57;28.15
76352;BME280;65179;47.786;19.138;2023-03-26T15:32:22;99133.03;;;17.72;27.78
76352;BME280;65179;47.786;19.138;2023-03-26T15:38:09;99115.47;;;17.73;28.66
76352;BME280;65179;47.786;19.138;2023-03-26T15:43:30;99116.34;;;17.68;28.97
76352;BME280;65179;47.786;19.138;2023-03-26T15:46:50;99115.41;;;17.78;29.24
76352;BME280;65179;47.786;19.138;2023-03-26T15:49:30;99110.78;;;17.55;29.19
76352;BME280;65179;47.786;19.138;2023-03-26T15:55:19;99107.56;;;17.48;30.08
76352;BME280;65179;47.786;19.138;2023-03-26T15:58:20;99102.09;;;17.48;30.52
76352;BME280;65179;47.786;19.138;2023-03-26T16:09:32;99080.59;;;17.12;30.07
76352;BME280;65179;47.786;19.138;2023-03-26T16:12:27;99078.78;;;17.03;30.17
76352;BME280;65179;47.786;19.138;2023-03-26T16:26:17;99063.25;;;16.46;32.38
76352;BME280;65179;47.786;19.138;2023-03-26T16:41:32;99053.75;;;16.10;33.10
76352;BME280;65179;47.786;19.138;2023-03-26T16:46:33;99052.72;;;16.06;33.23
76352;BME280;65179;47.786;19.138;2023-03-26T16:49:28;99053.34;;;15.98;33.49
76352;BME280;65179;47.786;19.138;2023-03-26T16:54:49;99054.28;;;15.83;33.93
76352;BME280;65179;47.786;19.138;2023-03-26T16:57:25;99062.03;;;15.71;33.89
76352;BME280;65179;47.786;19.138;2023-03-26T17:11:30;99049.69;;;15.78;34.08
76352;BME280;65179;47.786;19.138;2023-03-26T17:16:47;99048.37;;;15.66;34.31
76352;BME280;65179;47.786;19.138;2023-03-26T17:25:18;99046.84;;;15.55;35.67
76352;BME280;65179;47.786;19.138;2023-03-26T17:41:06;99059.06;;;15.18;36.61
76352;BME280;65179;47.786;19.138;2023-03-26T17:54:35;99060.00;;;14.99;37.71
76352;BME280;65179;47.786;19.138;2023-03-26T17:57:13;99055.87;;;15.01;37.79
76352;BME280;65179;47.786;19.138;2023-03-26T17:59:42;99067.19;;;14.90;38.81
76352;BME280;65179;47.786;19.138;2023-03-26T18:02:19;99069.63;;;14.81;39.15
76352;BME280;65179;47.786;19.138;2023-03-26T18:04:50;99075.09;;;14.81;39.12
76352;BME280;65179;47.786;19.138;2023-03-26T18:20:43;99070.75;;;14.75;40.34
76352;BME280;65179;47.786;19.138;2023-03-26T18:25:54;99063.94;;;14.73;41.72
76352;BME280;65179;47.786;19.138;2023-03-26T18:28:29;99055.78;;;14.68;41.25
76352;BME280;65179;47.786;19.138;2023-03-26T18:31:07;99040.75;;;14.70;41.22
76352;BME280;65179;47.786;19.138;2023-03-26T18:33:45;99037.72;;;14.77;40.41
76352;BME280;65179;47.786;19.138;2023-03-26T18:36:11;99039.91;;;14.75;40.36
76352;BME280;65179;47.786;19.138;2023-03-26T18:38:38;99029.22;;;14.73;40.36
76352;BME280;65179;47.786;19.138;2023-03-26T18:41:06;99021.06;;;14.68;39.98
76352;BME280;65179;47.786;19.138;2023-03-26T18:43:39;99021.31;;;14.72;39.67
76352;BME280;65179;47.786;19.138;2023-03-26T18:46:05;99015.03;;;14.71;39.67
76352;BME280;65179;47.786;19.138;2023-03-26T18:48:32;99014.22;;;14.71;39.45
76352;BME280;65179;47.786;19.138;2023-03-26T18:51:04;99014.78;;;14.68;39.15
76352;BME280;65179;47.786;19.138;2023-03-26T18:53:46;99005.78;;;14.62;39.31
76352;BME280;65179;47.786;19.138;2023-03-26T18:59:21;98996.53;;;14.53;38.99
76352;BME280;65179;47.786;19.138;2023-03-26T19:01:54;98996.63;;;14.33;39.80
76352;BME280;65179;47.786;19.138;2023-03-26T19:04:27;98983.50;;;14.40;39.67
76352;BME280;65179;47.786;19.138;2023-03-26T19:06:56;98977.97;;;14.50;39.41
76352;BME280;65179;47.786;19.138;2023-03-26T19:09:25;98968.19;;;14.44;39.48
76352;BME280;65179;47.786;19.138;2023-03-26T19:12:05;98966.28;;;14.39;39.69
76352;BME280;65179;47.786;19.138;2023-03-26T19:14:31;98958.09;;;14.39;39.68
76352;BME280;65179;47.786;19.138;2023-03-26T19:17:02;98960.53;;;14.36;39.73
76352;BME280;65179;47.786;19.138;2023-03-26T19:19:31;98945.81;;;14.37;39.80
76352;BME280;65179;47.786;19.138;2023-03-26T19:21:59;98945.81;;;14.32;40.27
76352;BME280;65179;47.786;19.138;2023-03-26T19:24:26;98944.72;;;14.33;40.18
76352;BME280;65179;47.786;19.138;2023-03-26T19:26:52;98933.28;;;14.31;40.39
76352;BME280;65179;47.786;19.138;2023-03-26T19:29:30;98936.25;;;14.34;40.46
76352;BME280;65179;47.786;19.138;2023-03-26T19:32:03;98927.78;;;14.21;40.57
76352;BME280;65179;47.786;19.138;2023-03-26T19:34:37;98932.22;;;14.07;40.83